createdAt,value
2019-02-11T00:04:56.535Z,2.50
2019-02-11T00:09:59.819Z,2.80
2019-02-11T00:15:03.108Z,2.30
2019-02-11T00:20:06.388Z,2.53
2019-02-11T00:25:09.692Z,2.30
2019-02-11T00:30:12.974Z,3.50
2019-02-11T00:35:16.257Z,2.03
2019-02-11T00:40:19.543Z,3.60
2019-02-11T00:45:22.819Z,2.30
2019-02-11T00:50:26.101Z,2.30
2019-02-11T00:55:29.376Z,1.70
2019-02-11T01:00:32.664Z,2.80
2019-02-11T01:05:35.949Z,2.10
2019-02-11T01:10:39.262Z,3.53
2019-02-11T01:15:42.587Z,1.73
2019-02-11T01:20:45.851Z,2.87
2019-02-11T01:25:49.147Z,2.23
2019-02-11T01:30:52.414Z,2.40
2019-02-11T01:35:55.699Z,2.20
2019-02-11T01:40:59.001Z,2.40
2019-02-11T01:46:02.287Z,2.43
2019-02-11T01:51:05.554Z,2.57
2019-02-11T01:56:08.838Z,3.20
2019-02-11T02:01:12.131Z,1.90
2019-02-11T02:06:15.417Z,2.00
2019-02-11T02:11:18.717Z,1.77
2019-02-11T02:16:22.003Z,1.67
2019-02-11T02:21:25.280Z,1.63
2019-02-11T02:26:28.570Z,1.03
2019-02-11T02:31:31.855Z,2.50
2019-02-11T02:36:35.110Z,2.07
2019-02-11T02:41:38.398Z,2.33
2019-02-11T02:46:41.676Z,1.17
2019-02-11T02:51:44.975Z,2.00
2019-02-11T02:56:48.239Z,1.50
2019-02-11T03:01:51.530Z,1.53
2019-02-11T03:06:54.795Z,1.27
2019-02-11T03:11:58.078Z,1.87
2019-02-11T03:17:01.369Z,1.43
2019-02-11T03:22:04.649Z,1.37
2019-02-11T03:27:07.912Z,1.57
2019-02-11T03:32:11.182Z,1.60
2019-02-11T03:37:14.524Z,1.37
2019-02-11T03:42:17.809Z,1.00
2019-02-11T03:47:21.091Z,1.57
2019-02-11T03:52:24.353Z,2.67
2019-02-11T03:57:27.633Z,1.27
2019-02-11T04:02:30.954Z,1.33
2019-02-11T04:07:34.216Z,0.80
2019-02-11T04:12:37.483Z,1.10
2019-02-11T04:17:40.773Z,1.70
2019-02-11T04:22:44.052Z,0.93
2019-02-11T04:27:47.332Z,1.40
2019-02-11T04:32:50.610Z,1.43
2019-02-11T04:37:53.889Z,0.70
2019-02-11T04:42:57.149Z,1.13
2019-02-11T04:48:00.480Z,0.90
2019-02-11T04:53:03.765Z,0.90
2019-02-11T04:58:07.047Z,1.93
2019-02-11T05:03:10.335Z,0.60
2019-02-11T05:08:13.638Z,1.00
2019-02-11T05:13:16.919Z,1.17
2019-02-11T05:18:20.247Z,1.00
2019-02-11T05:23:23.528Z,1.00
2019-02-11T05:28:26.842Z,1.57
2019-02-11T05:33:30.134Z,1.17
2019-02-11T05:38:33.421Z,1.57
2019-02-11T05:43:36.698Z,1.20
2019-02-11T05:48:39.967Z,1.60
2019-02-11T05:53:43.262Z,1.13
2019-02-11T05:58:46.614Z,0.90
2019-02-11T06:03:49.899Z,1.10
2019-02-11T06:08:53.185Z,1.10
2019-02-11T06:13:56.469Z,0.83
2019-02-11T06:18:59.753Z,1.90
2019-02-11T06:24:03.028Z,1.00
2019-02-11T06:29:06.306Z,1.27
2019-02-11T06:34:09.591Z,1.07
2019-02-11T06:39:12.860Z,1.60
2019-02-11T06:44:16.181Z,1.30
2019-02-11T06:49:19.459Z,1.37
2019-02-11T06:54:22.769Z,1.47
2019-02-11T06:59:26.089Z,2.17
2019-02-11T07:04:29.358Z,1.00
2019-02-11T07:09:32.936Z,2.10
2019-02-11T07:14:36.214Z,2.90
2019-02-11T07:19:39.512Z,1.60
2019-02-11T07:24:42.798Z,1.27
2019-02-11T07:29:46.084Z,2.20
2019-02-11T07:34:49.367Z,1.33
2019-02-11T07:39:52.653Z,2.10
2019-02-11T07:44:55.937Z,2.80
2019-02-11T07:49:59.232Z,2.90
2019-02-11T07:55:02.508Z,3.70
2019-02-11T08:00:07.824Z,2.93
2019-02-11T08:05:11.111Z,3.67
2019-02-11T08:10:14.386Z,5.50
2019-02-11T08:15:17.672Z,4.07
2019-02-11T08:20:20.961Z,4.10
2019-02-11T08:25:24.268Z,3.37
2019-02-11T08:30:27.555Z,4.07
2019-02-11T08:35:30.912Z,6.47
2019-02-11T08:40:34.194Z,6.67
2019-02-11T08:45:37.464Z,4.83
2019-02-11T08:50:40.750Z,4.70
2019-02-11T08:55:44.037Z,6.90
2019-02-11T09:00:47.371Z,4.50
2019-02-11T09:05:50.651Z,4.60
2019-02-11T09:10:53.926Z,5.47
2019-02-11T09:15:57.194Z,5.23
2019-02-11T09:21:00.478Z,3.77
2019-02-11T09:26:03.762Z,2.50
2019-02-11T09:31:07.050Z,4.10
2019-02-11T09:36:10.318Z,3.40
2019-02-11T09:41:13.587Z,3.77
2019-02-11T09:46:16.871Z,2.73
2019-02-11T09:51:21.472Z,2.87
2019-02-11T09:56:24.736Z,4.87
2019-02-11T10:01:28.004Z,3.03
2019-02-11T10:06:31.340Z,2.63
2019-02-11T10:11:34.627Z,2.23
2019-02-11T10:16:37.920Z,3.33
2019-02-11T10:21:41.176Z,3.87
2019-02-11T10:26:44.443Z,3.27
2019-02-11T10:31:47.707Z,2.80
2019-02-11T10:36:50.970Z,2.30
2019-02-11T10:41:54.236Z,2.13
2019-02-11T10:46:57.542Z,2.30
2019-02-11T10:52:00.826Z,1.80
2019-02-11T10:57:04.093Z,2.73
2019-02-11T11:02:07.384Z,1.07
2019-02-11T11:07:10.681Z,3.10
2019-02-11T11:12:14.018Z,2.37
2019-02-11T11:17:17.288Z,2.50
2019-02-11T11:22:20.580Z,1.73
2019-02-11T11:27:23.861Z,2.13
2019-02-11T11:32:27.213Z,1.93
2019-02-11T11:37:30.527Z,1.60
2019-02-11T11:42:33.819Z,1.80
2019-02-11T11:47:37.101Z,0.97
2019-02-11T11:52:40.390Z,1.73
2019-02-11T11:57:43.724Z,1.43
2019-02-11T12:03:00.789Z,1.40
2019-02-11T12:07:52.001Z,1.43
2019-02-11T12:12:55.288Z,1.23
2019-02-11T12:17:58.543Z,2.17
2019-02-11T12:23:01.844Z,2.40
2019-02-11T12:28:05.143Z,1.97
2019-02-11T12:33:08.431Z,3.60
2019-02-11T12:38:11.742Z,1.60
2019-02-11T12:43:15.034Z,1.33
2019-02-11T12:48:18.315Z,2.10
2019-02-11T12:53:21.820Z,2.20
2019-02-11T12:58:25.121Z,2.23
2019-02-11T13:03:28.463Z,2.77
2019-02-11T13:08:32.704Z,2.30
2019-02-11T13:13:36.065Z,1.97
2019-02-11T13:18:40.219Z,2.80
2019-02-11T13:23:43.685Z,4.87
2019-02-11T13:28:47.006Z,4.70
2019-02-11T13:33:50.338Z,3.63
2019-02-11T13:38:53.661Z,4.23
2019-02-11T13:43:56.991Z,3.90
2019-02-11T13:49:00.335Z,3.30
2019-02-11T13:54:03.663Z,4.90
2019-02-11T13:59:07.067Z,3.23
2019-02-11T14:04:10.476Z,3.20
2019-02-11T14:09:13.932Z,4.70
2019-02-11T14:14:17.357Z,1.93
2019-02-11T14:19:20.817Z,3.67
2019-02-11T14:24:24.143Z,2.43
2019-02-11T14:29:27.527Z,3.07
2019-02-11T14:34:30.915Z,2.20
2019-02-11T14:39:34.343Z,2.73
2019-02-11T14:44:37.670Z,4.10
2019-02-11T14:49:41.043Z,2.10
2019-02-11T14:54:44.369Z,2.67
2019-02-11T14:59:47.703Z,1.87
2019-02-11T15:04:51.026Z,3.07
2019-02-11T15:09:54.355Z,1.77
2019-02-11T15:14:57.669Z,1.40
2019-02-11T15:20:01.096Z,2.13
2019-02-11T15:25:06.560Z,1.77
2019-02-11T15:30:12.427Z,1.37
2019-02-11T15:35:15.873Z,2.00
2019-02-11T15:40:23.566Z,2.30
2019-02-11T15:45:26.898Z,2.20
2019-02-11T15:50:30.223Z,1.53
2019-02-11T15:55:33.541Z,2.27
2019-02-11T16:00:36.958Z,1.93
2019-02-11T16:05:40.291Z,3.00
2019-02-11T16:10:43.625Z,3.73
2019-02-11T16:15:47.022Z,3.10
2019-02-11T16:20:50.362Z,3.23
2019-02-11T16:25:53.894Z,2.40
2019-02-11T16:30:57.219Z,2.70
2019-02-11T16:36:00.562Z,3.90
2019-02-11T16:41:03.933Z,3.07
2019-02-11T16:46:07.327Z,2.70
2019-02-11T16:51:10.883Z,2.93
2019-02-11T16:56:14.192Z,2.13
2019-02-11T17:01:17.517Z,2.17
2019-02-11T17:06:20.824Z,2.40
2019-02-11T17:11:24.231Z,1.47
2019-02-11T17:16:27.580Z,1.90
2019-02-11T17:21:30.925Z,2.40
2019-02-11T17:26:34.301Z,2.27
2019-02-11T17:31:37.697Z,1.70
2019-02-11T17:36:41.089Z,2.30
2019-02-11T17:41:44.526Z,2.00
2019-02-11T17:46:47.858Z,2.17
2019-02-11T17:51:51.250Z,4.00
2019-02-11T17:56:55.032Z,2.90
2019-02-11T18:01:58.537Z,1.50
2019-02-11T18:07:01.869Z,1.73
2019-02-11T18:12:05.265Z,1.83
2019-02-11T18:17:08.704Z,1.97
2019-02-11T18:22:12.116Z,1.70
2019-02-11T18:27:15.533Z,2.27
2019-02-11T18:32:18.946Z,2.10
2019-02-11T18:37:22.352Z,1.70
2019-02-11T18:42:25.780Z,1.77
2019-02-11T18:47:29.088Z,0.70
2019-02-11T18:52:32.523Z,2.73
2019-02-11T18:57:35.938Z,1.40
2019-02-11T19:02:39.478Z,0.97
2019-02-11T19:07:43.040Z,1.77
2019-02-11T19:12:46.466Z,1.10
2019-02-11T19:17:49.869Z,1.20
2019-02-11T19:22:53.265Z,2.00
2019-02-11T19:27:56.578Z,2.10
2019-02-11T19:32:59.909Z,1.50
2019-02-11T19:38:03.281Z,2.23
2019-02-11T19:43:06.698Z,1.13
2019-02-11T19:48:10.106Z,1.00
2019-02-11T19:53:13.425Z,1.10
2019-02-11T19:58:16.857Z,1.27
2019-02-11T20:03:20.179Z,1.23
2019-02-11T20:08:23.508Z,1.10
2019-02-11T20:13:26.909Z,1.30
2019-02-11T20:18:30.493Z,2.40
2019-02-11T20:23:33.957Z,1.73
2019-02-11T20:28:37.430Z,1.53
2019-02-11T20:33:40.810Z,3.40
2019-02-11T20:38:44.141Z,2.67
2019-02-11T20:43:47.477Z,1.80
2019-02-11T20:48:50.799Z,1.90
2019-02-11T20:53:54.137Z,1.87
2019-02-11T20:58:57.467Z,3.20
2019-02-11T21:04:00.805Z,2.17
2019-02-11T21:09:05.181Z,1.90
2019-02-11T21:14:08.520Z,1.87
2019-02-11T21:19:11.875Z,3.53
2019-02-11T21:24:15.225Z,1.87
2019-02-11T21:29:18.597Z,2.57
2019-02-11T21:34:21.910Z,1.80
2019-02-11T21:39:25.254Z,1.30
2019-02-11T21:44:28.653Z,0.93
2019-02-11T21:49:32.012Z,1.00
2019-02-11T21:54:35.392Z,2.73
2019-02-11T21:59:38.740Z,1.80
2019-02-11T22:04:42.074Z,1.33
2019-02-11T22:09:45.446Z,3.17
2019-02-11T22:14:48.783Z,1.30
2019-02-11T22:19:52.126Z,1.47
2019-02-11T22:24:56.490Z,1.73
2019-02-11T22:29:59.930Z,1.30
2019-02-11T22:35:03.728Z,0.80
2019-02-11T22:40:09.883Z,1.60
2019-02-11T22:45:18.656Z,1.30
2019-02-11T22:50:22.027Z,3.43
2019-02-11T22:55:25.433Z,1.37
2019-02-11T23:00:50.413Z,1.43
2019-02-11T23:05:53.763Z,1.33
2019-02-11T23:10:57.061Z,1.13
2019-02-11T23:16:00.529Z,0.83
2019-02-11T23:21:03.925Z,2.00
2019-02-11T23:26:13.345Z,1.77
2019-02-11T23:31:16.652Z,1.20
2019-02-11T23:36:19.960Z,1.63
2019-02-11T23:41:23.362Z,2.17
2019-02-11T23:46:26.692Z,0.87
2019-02-11T23:51:30.020Z,1.57
2019-02-11T23:56:33.381Z,1.50
